Flight Track Log - Related Links

Times and Time Zones

All times are in EST time to prevent confusion due to time zone crossing. See the AAY748 flight status page for this flight to view local times or setup timezone preferences in your user account.

Time Position Orientation Groundspeed Altitude Reporting Facility
EST Latitude Longitude Course Direction KTS MPH feet Rate Location/Type
Fri 02:34:52 PM 28.7833 -81.2667 270° West 201 231 1,000  Level Orlando TRACON
Fri 02:35:53 PM 28.7833 -81.3333 270° West 214 246 3,300 2,480 Climbing Orlando TRACON
Fri 02:37:22 PM 28.8756 -81.3728 339° North 289 333 7,200 2,429 Climbing Jacksonville Center
Fri 02:37:59 PM 28.9256 -81.3694 North 298 343 8,400 2,227 Climbing Jacksonville Center
Fri 02:38:59 PM 29.0092 -81.3778 355° North 306 352 10,800 2,100 Climbing Jacksonville Center
Fri 02:39:59 PM 29.0992 -81.3956 350° North 322 371 12,600 1,750 Climbing Jacksonville Center
Fri 02:40:59 PM 29.1997 -81.4225 347° North 362 417 14,300 1,850 Climbing Jacksonville Center
Fri 02:41:59 PM 29.2958 -81.4494 346° North 376 433 16,300 1,950 Climbing Jacksonville Center
Fri 02:42:59 PM 29.4089 -81.4767 348° North 393 452 18,200 1,850 Climbing Jacksonville Center
Fri 02:43:59 PM 29.5242 -81.5058 348° North 404 465 20,000 1,900 Climbing Jacksonville Center
Fri 02:44:59 PM 29.6414 -81.5353 348° North 417 480 22,000 1,750 Climbing Jacksonville Center
Fri 02:45:59 PM 29.7586 -81.5672 347° North 423 487 23,500 1,400 Climbing Jacksonville Center
Fri 02:46:59 PM 29.8819 -81.5967 348° North 435 501 24,800 950 Climbing Jacksonville Center
Fri 02:47:59 PM 30.0036 -81.6333 345° North 447 514 25,400 1,300 Climbing Jacksonville Center
Fri 02:48:59 PM 30.1269 -81.6606 349° North 447 514 27,400 1,700 Climbing Jacksonville Center
Fri 02:49:59 PM 30.2483 -81.6975 345° North 447 514 28,800 1,550 Climbing Jacksonville Center
Fri 02:50:59 PM 30.3803 -81.7247 350° North 444 511 30,500 1,300 Climbing Jacksonville Center
Fri 02:51:59 PM 30.4892 -81.7594 345° North 427 491 31,400 1,100 Climbing Jacksonville Center
Fri 02:52:59 PM 30.6231 -81.7942 347° North 433 498 32,700 750 Climbing Jacksonville Center
Fri 02:53:59 PM 30.7319 -81.8389 341° North 427 491 32,900 150 Climbing Jacksonville Center
Fri 02:54:59 PM 30.8161 -81.9178 321° Northwest 399 459 33,000 50 Climbing Jacksonville Center
Fri 02:55:59 PM 30.9147 -81.9894 328° Northwest 406 467 33,000  Level Jacksonville Center
Fri 02:56:59 PM 31.0278 -82.0319 342° North 411 473 33,000  Level Jacksonville Center
Fri 02:57:59 PM 31.1408 -82.0744 342° North 426 490 33,000  Level Jacksonville Center
Fri 02:58:59 PM 31.2497 -82.1197 340° North 426 490 33,000  Level Jacksonville Center
Fri 02:59:59 PM 31.3669 -82.1603 344° North 426 490 33,000  Level Jacksonville Center
Fri 03:00:59 PM 31.4778 -82.2031 342° North 421 484 33,000  Level Jacksonville Center
Fri 03:01:59 PM 31.5928 -82.2461 342° North 429 494 33,000  Level Jacksonville Center
Fri 03:04:47 PM 31.9106 -82.3581 343° North 438 504 33,000  Level Atlanta Center
Fri 03:05:47 PM 32.0258 -82.4000 343° North 438 504 33,000  Level Atlanta Center
Fri 03:06:47 PM 32.1350 -82.4447 341° North 432 497 33,000  Level Atlanta Center
Fri 03:07:47 PM 32.2461 -82.4819 344° North 425 489 33,000 350 Level Atlanta Center
Fri 03:08:47 PM 32.3572 -82.5217 343° North 420 483 33,700 500 Climbing Atlanta Center
Fri 03:09:47 PM 32.4683 -82.5667 341° North 420 483 34,000 150 Climbing Atlanta Center
Fri 03:10:47 PM 32.5814 -82.6067 343° North 425 489 34,000  Level Atlanta Center
Fri 03:11:47 PM 32.6906 -82.6517 341° North 425 489 34,000  Level Atlanta Center
Fri 03:12:47 PM 32.8078 -82.6894 345° North 425 489 34,000  Level Atlanta Center
Fri 03:13:47 PM 32.9211 -82.7372 341° North 425 489 34,000  Level Atlanta Center
Fri 03:14:47 PM 33.0364 -82.7775 344° North 425 489 34,000  Level Atlanta Center
Fri 03:15:47 PM 33.1453 -82.8256 340° North 425 489 34,000  Level Atlanta Center
Fri 03:16:47 PM 33.2625 -82.8611 346° North 425 489 34,000  Level Atlanta Center
Fri 03:17:47 PM 33.3758 -82.9119 339° North 425 489 34,000  Level Atlanta Center
Fri 03:18:47 PM 33.4825 -82.9478 344° North 430 495 34,000  Level Atlanta Center
Fri 03:19:47 PM 33.5956 -82.9939 341° North 430 495 34,000  Level Atlanta Center
Fri 03:20:47 PM 33.7086 -83.0350 343° North 425 489 34,000  Level Atlanta Center
Fri 03:21:47 PM 33.8281 -83.0786 343° North 430 495 34,000  Level Atlanta Center
Fri 03:22:47 PM 33.9453 -83.1197 344° North 435 501 34,000  Level Atlanta Center
Fri 03:23:47 PM 34.0583 -83.1661 341° North 435 501 34,000  Level Atlanta Center
Fri 03:24:47 PM 34.1797 -83.2128 342° North 440 506 34,000  Level Atlanta Center
Fri 03:25:47 PM 34.2906 -83.2569 342° North 434 499 34,000  Level Atlanta Center
Fri 03:26:47 PM 34.4078 -83.3011 343° North 434 499 34,000  Level Atlanta Center
Fri 03:27:47 PM 34.5333 -83.3503 342° North 429 494 34,000  Level Atlanta Center
Fri 03:28:47 PM 34.6503 -83.3922 344° North 429 494 34,000  Level Atlanta Center
Fri 03:29:47 PM 34.7633 -83.4394 341° North 429 494 34,000  Level Atlanta Center
Fri 03:30:47 PM 34.8803 -83.4869 342° North 429 494 34,000  Level Atlanta Center
Fri 03:31:47 PM 34.9953 -83.5317 342° North 429 494 34,000  Level Atlanta Center
Fri 03:32:47 PM 35.1081 -83.5767 342° North 429 494 34,000  Level Atlanta Center
Fri 03:33:47 PM 35.2169 -83.6244 340° North 423 487 34,000  Level Atlanta Center
Fri 03:34:47 PM 35.3297 -83.6644 344° North 423 487 34,000  Level Atlanta Center
Fri 03:35:47 PM 35.4383 -83.7125 340° North 423 487 34,000  Level Atlanta Center
Fri 03:36:47 PM 35.5511 -83.7581 342° North 423 487 34,000  Level Atlanta Center
Fri 03:37:47 PM 35.6597 -83.8036 341° North 423 487 34,000  Level Atlanta Center
Fri 03:38:47 PM 35.7722 -83.8392 346° North 423 487 34,000  Level Atlanta Center
Fri 03:40:39 PM 35.9611 -83.9011 345° North 412 474 34,000  Level Indianapolis Center
Fri 03:41:41 PM 36.0764 -83.9175 353° North 416 479 34,000  Level Indianapolis Center
Fri 03:42:43 PM 36.2131 -83.9417 352° North 416 479 34,000  Level Indianapolis Center
Fri 03:43:45 PM 36.3297 -83.9575 354° North 420 483 34,000  Level Indianapolis Center
Fri 03:44:47 PM 36.4486 -83.9767 353° North 427 491 34,000  Level Indianapolis Center
Fri 03:45:49 PM 36.5742 -83.9956 353° North 431 496 34,000  Level Indianapolis Center
Fri 03:46:51 PM 36.6933 -84.0114 354° North 429 494 34,000  Level Indianapolis Center
Fri 03:47:53 PM 36.8128 -84.0308 353° North 430 495 34,000  Level Indianapolis Center
Fri 03:48:55 PM 36.9317 -84.0469 354° North 428 493 34,000  Level Indianapolis Center
Fri 03:49:57 PM 37.0692 -84.0694 353° North 425 489 34,000  Level Indianapolis Center
Fri 03:50:59 PM 37.1881 -84.0828 355° North 427 491 34,000  Level Indianapolis Center
Fri 03:52:01 PM 37.3044 -84.1047 351° North 422 486 34,000  Level Indianapolis Center
Fri 03:53:03 PM 37.4228 -84.1172 355° North 423 487 34,000  Level Indianapolis Center
Fri 03:54:05 PM 37.5381 -84.1408 351° North 419 482 34,000  Level Indianapolis Center
Fri 03:55:07 PM 37.6558 -84.1547 355° North 421 484 34,000  Level Indianapolis Center
Fri 03:56:09 PM 37.7906 -84.1800 352° North 419 482 34,000  Level Indianapolis Center
Fri 03:57:11 PM 37.9078 -84.1958 354° North 421 484 34,000  Level Indianapolis Center
Fri 03:58:13 PM 38.0242 -84.2150 353° North 420 483 34,000  Level Indianapolis Center
Fri 03:59:15 PM 38.1456 -84.2292 355° North 432 497 34,000 -871 Level Indianapolis Center
Fri 04:00:17 PM 38.2625 -84.2478 353° North 426 490 32,200 -968 Descending Indianapolis Center
Fri 04:01:19 PM 38.3825 -84.2686 352° North 432 497 32,000 -97 Descending Indianapolis Center
Fri 04:02:21 PM 38.5244 -84.2878 354° North 436 502 32,000  Level Indianapolis Center
Fri 04:03:23 PM 38.6453 -84.3097 352° North 437 503 32,000  Level Indianapolis Center
Fri 04:04:25 PM 38.7572 -84.3544 343° North 424 488 32,000  Level Indianapolis Center
Fri 04:05:26 PM 38.8742 -84.3914 346° North 429 494 32,000  Level Indianapolis Center
Fri 04:06:28 PM 38.9883 -84.4358 343° North 429 494 32,000  Level Indianapolis Center
Fri 04:07:30 PM 39.1061 -84.4733 346° North 433 498 32,000 -194 Level Indianapolis Center
Fri 04:08:32 PM 39.2200 -84.5222 342° North 430 495 31,600 -726 Descending Indianapolis Center
Fri 04:09:34 PM 39.3381 -84.5608 346° North 434 499 30,500 -1,065 Descending Indianapolis Center
Fri 04:10:36 PM 39.4761 -84.6186 342° North 434 499 29,400 -1,016 Descending Indianapolis Center
Fri 04:11:38 PM 39.5969 -84.6578 346° North 440 506 28,400 -976 Descending Indianapolis Center
Fri 04:12:39 PM 39.7139 -84.7067 342° North 440 506 27,400 -976 Descending Indianapolis Center
Fri 04:13:41 PM 39.8317 -84.7453 346° North 438 504 26,400 -968 Descending Indianapolis Center
Fri 04:14:43 PM 39.9436 -84.7944 341° North 430 495 25,400 -968 Descending Indianapolis Center
Fri 04:15:45 PM 40.0594 -84.8306 347° North 425 489 24,400 -1,016 Descending Indianapolis Center
Fri 04:16:47 PM 40.1672 -84.8828 340° North 419 482 23,300 -726 Descending Indianapolis Center
Fri 04:17:49 PM 40.2558 -84.9686 324° Northwest 379 436 22,900 -774 Descending Indianapolis Center
Fri 04:18:51 PM 40.3408 -85.0436 326° Northwest 374 430 21,700 -1,355 Descending Indianapolis Center
Fri 04:19:53 PM 40.4375 -85.1400 323° Northwest 368 423 20,100 -739 Descending Indianapolis Center
Fri 04:21:09 PM 40.5392 -85.2261 327° Northwest 369 425 20,000 -43 Descending Chicago Center
Fri 04:22:11 PM 40.6225 -85.3039 325° Northwest 368 423 20,000  Level Chicago Center
Fri 04:23:13 PM 40.7156 -85.3858 326° Northwest 367 422 20,000 -339 Level Chicago Center
Fri 04:24:15 PM 40.7975 -85.4650 324° Northwest 364 419 19,300 -1,113 Descending Chicago Center
Fri 04:25:17 PM 40.8831 -85.5408 326° Northwest 371 427 17,700 -1,403 Descending Chicago Center
Fri 04:26:19 PM 40.9642 -85.6231 323° Northwest 366 421 16,400 -1,306 Descending Chicago Center
Fri 04:27:21 PM 41.0503 -85.6950 328° Northwest 366 421 15,000 -1,500 Descending Chicago Center
Fri 04:28:23 PM 41.1422 -85.7831 324° Northwest 342 394 13,300 -1,548 Descending Chicago Center
Fri 04:29:25 PM 41.2294 -85.8278 339° North 336 387 11,800 -1,104 Descending Chicago Center
Fri 04:30:28 PM 41.3083 -85.8758 335° Northwest 311 358 11,000 -384 Descending Chicago Center
Fri 04:31:30 PM 41.3794 -85.9161 337° Northwest 281 323 11,000 -387 Level Chicago Center
Fri 04:32:32 PM 41.4503 -85.9517 339° North 272 313 10,200 -1,403 Descending Chicago Center
Fri 04:33:34 PM 41.5208 -85.9872 339° North 270 311 8,100 -2,129 Descending Chicago Center
Fri 04:34:36 PM 41.5889 -86.0253 337° Northwest 264 304 5,800 -1,984 Descending Chicago Center
Fri 04:35:38 PM 41.6675 -86.0633 340° North 257 296 4,000 -1,403 Descending Chicago Center
Fri 04:36:40 PM 41.6994 -86.1206 307° West 221 254 2,900 -774 Descending Chicago Center
Fri 04:37:42 PM 41.7058 -86.1883 277° West 198 228 2,400 -576 Descending Chicago Center
Fri 04:38:45 PM 41.7044 -86.2386 268° West 162 186 1,700 -528 Descending Chicago Center
Fri 04:39:47 PM 41.7031 -86.2944 268° West 147 169 1,300 -387 Descending Chicago Center

Login

Don't have an account? Register now (free) for customized features, flight alerts, and more!